sensor_id;sensor_type;location;lat;lon;timestamp;P1;durP1;ratioP1;P2;durP2;ratioP2
16727;SDS011;8482;54.396;18.590;2022-12-10T15:08:38;27.57;;;13.63;;
16727;SDS011;8482;54.396;18.590;2022-12-10T15:11:10;23.63;;;12.13;;
16727;SDS011;8482;54.396;18.590;2022-12-10T15:13:43;26.07;;;12.63;;
16727;SDS011;8482;54.396;18.590;2022-12-10T15:16:18;24.03;;;13.03;;
16727;SDS011;8482;54.396;18.590;2022-12-10T15:18:54;22.60;;;11.53;;
16727;SDS011;8482;54.396;18.590;2022-12-10T15:21:24;23.17;;;12.47;;
16727;SDS011;8482;54.396;18.590;2022-12-10T15:23:59;24.87;;;12.03;;
16727;SDS011;8482;54.396;18.590;2022-12-10T15:26:42;22.53;;;11.67;;
16727;SDS011;8482;54.396;18.590;2022-12-10T15:29:30;22.20;;;12.57;;
16727;SDS011;8482;54.396;18.590;2022-12-10T15:32:04;22.73;;;12.17;;
16727;SDS011;8482;54.396;18.590;2022-12-10T15:34:47;23.20;;;12.70;;
16727;SDS011;8482;54.396;18.590;2022-12-10T15:37:32;23.37;;;12.27;;
16727;SDS011;8482;54.396;18.590;2022-12-10T15:40:04;23.37;;;12.83;;
16727;SDS011;8482;54.396;18.590;2022-12-10T15:42:46;26.07;;;12.83;;
16727;SDS011;8482;54.396;18.590;2022-12-10T15:45:26;22.93;;;12.07;;
16727;SDS011;8482;54.396;18.590;2022-12-10T15:48:06;23.60;;;12.70;;
16727;SDS011;8482;54.396;18.590;2022-12-10T15:50:36;26.87;;;13.50;;
16727;SDS011;8482;54.396;18.590;2022-12-10T15:53:07;24.40;;;13.60;;
16727;SDS011;8482;54.396;18.590;2022-12-10T15:55:39;25.00;;;12.97;;
16727;SDS011;8482;54.396;18.590;2022-12-10T15:58:11;22.30;;;12.77;;
16727;SDS011;8482;54.396;18.590;2022-12-10T16:00:39;23.27;;;12.97;;
16727;SDS011;8482;54.396;18.590;2022-12-10T16:03:12;24.60;;;12.77;;
16727;SDS011;8482;54.396;18.590;2022-12-10T16:05:41;25.23;;;13.30;;
16727;SDS011;8482;54.396;18.590;2022-12-10T16:10:45;23.13;;;12.50;;
16727;SDS011;8482;54.396;18.590;2022-12-10T16:13:16;24.83;;;12.93;;
16727;SDS011;8482;54.396;18.590;2022-12-10T16:15:54;25.67;;;13.67;;
16727;SDS011;8482;54.396;18.590;2022-12-10T16:18:25;23.83;;;12.43;;
16727;SDS011;8482;54.396;18.590;2022-12-10T16:20:52;25.07;;;13.43;;
16727;SDS011;8482;54.396;18.590;2022-12-10T16:23:18;24.50;;;13.33;;
16727;SDS011;8482;54.396;18.590;2022-12-10T16:25:44;27.00;;;14.00;;
16727;SDS011;8482;54.396;18.590;2022-12-10T16:28:14;23.97;;;13.30;;
16727;SDS011;8482;54.396;18.590;2022-12-10T16:30:44;20.57;;;11.87;;
16727;SDS011;8482;54.396;18.590;2022-12-10T16:33:14;27.00;;;14.50;;
16727;SDS011;8482;54.396;18.590;2022-12-10T16:35:45;26.63;;;13.37;;
16727;SDS011;8482;54.396;18.590;2022-12-10T16:38:12;25.97;;;13.40;;
16727;SDS011;8482;54.396;18.590;2022-12-10T16:40:39;26.00;;;13.63;;
16727;SDS011;8482;54.396;18.590;2022-12-10T16:43:17;27.90;;;14.47;;
16727;SDS011;8482;54.396;18.590;2022-12-10T16:45:54;22.20;;;12.53;;
16727;SDS011;8482;54.396;18.590;2022-12-10T16:48:21;26.17;;;13.27;;
16727;SDS011;8482;54.396;18.590;2022-12-10T16:50:51;26.03;;;13.53;;
16727;SDS011;8482;54.396;18.590;2022-12-10T16:53:26;23.97;;;13.33;;
16727;SDS011;8482;54.396;18.590;2022-12-10T16:55:56;24.13;;;12.40;;
16727;SDS011;8482;54.396;18.590;2022-12-10T16:58:22;25.03;;;14.17;;
16727;SDS011;8482;54.396;18.590;2022-12-10T17:00:50;24.73;;;12.87;;
16727;SDS011;8482;54.396;18.590;2022-12-10T17:03:23;27.10;;;13.53;;
16727;SDS011;8482;54.396;18.590;2022-12-10T17:05:54;28.30;;;14.47;;
16727;SDS011;8482;54.396;18.590;2022-12-10T17:08:24;26.67;;;14.57;;
16727;SDS011;8482;54.396;18.590;2022-12-10T17:10:52;28.27;;;15.07;;
16727;SDS011;8482;54.396;18.590;2022-12-10T17:13:39;26.43;;;14.47;;
16727;SDS011;8482;54.396;18.590;2022-12-10T17:16:09;26.23;;;13.70;;
16727;SDS011;8482;54.396;18.590;2022-12-10T17:18:45;24.27;;;12.90;;
16727;SDS011;8482;54.396;18.590;2022-12-10T17:21:11;25.77;;;14.47;;
16727;SDS011;8482;54.396;18.590;2022-12-10T17:23:37;25.93;;;14.13;;
16727;SDS011;8482;54.396;18.590;2022-12-10T17:26:03;27.20;;;14.27;;
16727;SDS011;8482;54.396;18.590;2022-12-10T17:28:30;33.70;;;16.57;;
16727;SDS011;8482;54.396;18.590;2022-12-10T17:30:56;30.60;;;15.73;;
16727;SDS011;8482;54.396;18.590;2022-12-10T17:33:23;26.17;;;14.03;;
16727;SDS011;8482;54.396;18.590;2022-12-10T17:35:49;25.80;;;14.00;;
16727;SDS011;8482;54.396;18.590;2022-12-10T17:38:22;25.73;;;13.47;;
16727;SDS011;8482;54.396;18.590;2022-12-10T17:40:50;24.80;;;14.53;;
16727;SDS011;8482;54.396;18.590;2022-12-10T17:43:17;26.63;;;13.77;;
16727;SDS011;8482;54.396;18.590;2022-12-10T17:45:43;26.77;;;15.10;;
16727;SDS011;8482;54.396;18.590;2022-12-10T17:48:14;26.57;;;13.90;;
16727;SDS011;8482;54.396;18.590;2022-12-10T17:50:43;30.47;;;15.97;;
16727;SDS011;8482;54.396;18.590;2022-12-10T17:53:11;27.60;;;15.10;;
16727;SDS011;8482;54.396;18.590;2022-12-10T17:55:43;30.93;;;15.53;;
16727;SDS011;8482;54.396;18.590;2022-12-10T17:58:16;29.10;;;15.47;;
16727;SDS011;8482;54.396;18.590;2022-12-10T18:00:45;27.27;;;14.63;;
16727;SDS011;8482;54.396;18.590;2022-12-10T18:03:11;29.53;;;16.00;;
16727;SDS011;8482;54.396;18.590;2022-12-10T18:05:38;30.03;;;16.20;;
16727;SDS011;8482;54.396;18.590;2022-12-10T18:08:04;32.13;;;16.43;;
16727;SDS011;8482;54.396;18.590;2022-12-10T18:10:31;35.90;;;17.97;;
16727;SDS011;8482;54.396;18.590;2022-12-10T18:12:59;29.33;;;16.23;;
16727;SDS011;8482;54.396;18.590;2022-12-10T18:15:27;27.90;;;16.40;;
16727;SDS011;8482;54.396;18.590;2022-12-10T18:17:54;29.73;;;16.60;;
16727;SDS011;8482;54.396;18.590;2022-12-10T18:20:23;28.87;;;15.87;;
16727;SDS011;8482;54.396;18.590;2022-12-10T18:23:00;33.57;;;17.90;;
16727;SDS011;8482;54.396;18.590;2022-12-10T18:25:27;34.50;;;16.77;;
16727;SDS011;8482;54.396;18.590;2022-12-10T18:27:55;35.40;;;19.10;;
16727;SDS011;8482;54.396;18.590;2022-12-10T18:30:26;33.13;;;17.87;;
16727;SDS011;8482;54.396;18.590;2022-12-10T18:32:52;35.77;;;18.57;;
16727;SDS011;8482;54.396;18.590;2022-12-10T18:35:18;34.40;;;18.53;;
16727;SDS011;8482;54.396;18.590;2022-12-10T18:37:45;36.13;;;18.57;;
16727;SDS011;8482;54.396;18.590;2022-12-10T18:40:13;39.47;;;20.23;;
16727;SDS011;8482;54.396;18.590;2022-12-10T18:42:45;34.10;;;17.83;;
16727;SDS011;8482;54.396;18.590;2022-12-10T18:45:12;41.07;;;19.93;;
16727;SDS011;8482;54.396;18.590;2022-12-10T18:47:38;37.53;;;19.23;;
16727;SDS011;8482;54.396;18.590;2022-12-10T18:50:05;42.17;;;20.60;;
16727;SDS011;8482;54.396;18.590;2022-12-10T18:52:45;40.20;;;20.53;;
16727;SDS011;8482;54.396;18.590;2022-12-10T18:55:11;37.93;;;19.83;;
16727;SDS011;8482;54.396;18.590;2022-12-10T18:57:37;37.80;;;20.60;;
16727;SDS011;8482;54.396;18.590;2022-12-10T19:00:05;38.07;;;22.00;;
16727;SDS011;8482;54.396;18.590;2022-12-10T19:02:38;42.43;;;21.53;;
16727;SDS011;8482;54.396;18.590;2022-12-10T19:05:04;36.33;;;21.07;;
16727;SDS011;8482;54.396;18.590;2022-12-10T19:07:31;37.90;;;19.77;;
16727;SDS011;8482;54.396;18.590;2022-12-10T19:09:57;38.70;;;20.40;;
16727;SDS011;8482;54.396;18.590;2022-12-10T19:12:23;39.07;;;20.33;;
16727;SDS011;8482;54.396;18.590;2022-12-10T19:14:49;35.93;;;18.87;;
16727;SDS011;8482;54.396;18.590;2022-12-10T19:17:14;37.37;;;19.07;;
16727;SDS011;8482;54.396;18.590;2022-12-10T19:19:40;32.33;;;16.47;;
16727;SDS011;8482;54.396;18.590;2022-12-10T19:22:06;33.13;;;17.40;;
16727;SDS011;8482;54.396;18.590;2022-12-10T19:24:32;31.07;;;16.60;;
16727;SDS011;8482;54.396;18.590;2022-12-10T19:26:58;27.80;;;15.83;;
16727;SDS011;8482;54.396;18.590;2022-12-10T19:29:23;28.70;;;16.03;;
16727;SDS011;8482;54.396;18.590;2022-12-10T19:31:50;30.03;;;16.20;;
16727;SDS011;8482;54.396;18.590;2022-12-10T19:34:17;29.80;;;15.97;;
16727;SDS011;8482;54.396;18.590;2022-12-10T19:36:44;28.60;;;16.43;;
16727;SDS011;8482;54.396;18.590;2022-12-10T19:39:15;31.87;;;17.97;;
16727;SDS011;8482;54.396;18.590;2022-12-10T19:41:47;34.40;;;18.80;;
16727;SDS011;8482;54.396;18.590;2022-12-10T19:44:14;35.70;;;18.40;;
16727;SDS011;8482;54.396;18.590;2022-12-10T19:46:40;37.73;;;18.80;;
16727;SDS011;8482;54.396;18.590;2022-12-10T19:49:09;31.77;;;19.33;;
16727;SDS011;8482;54.396;18.590;2022-12-10T19:51:37;31.47;;;17.40;;
16727;SDS011;8482;54.396;18.590;2022-12-10T19:54:03;32.93;;;18.67;;
16727;SDS011;8482;54.396;18.590;2022-12-10T19:56:30;34.60;;;18.73;;
16727;SDS011;8482;54.396;18.590;2022-12-10T19:59:02;31.30;;;16.90;;
16727;SDS011;8482;54.396;18.590;2022-12-10T20:01:36;31.73;;;17.20;;
16727;SDS011;8482;54.396;18.590;2022-12-10T20:04:02;30.30;;;16.93;;
16727;SDS011;8482;54.396;18.590;2022-12-10T20:06:28;31.57;;;17.33;;
16727;SDS011;8482;54.396;18.590;2022-12-10T20:09:02;32.13;;;16.27;;
16727;SDS011;8482;54.396;18.590;2022-12-10T20:11:38;31.80;;;16.53;;
16727;SDS011;8482;54.396;18.590;2022-12-10T20:14:03;31.23;;;17.67;;
16727;SDS011;8482;54.396;18.590;2022-12-10T20:16:32;30.03;;;17.13;;
16727;SDS011;8482;54.396;18.590;2022-12-10T20:18:58;35.40;;;18.50;;
16727;SDS011;8482;54.396;18.590;2022-12-10T20:21:24;34.20;;;17.83;;
16727;SDS011;8482;54.396;18.590;2022-12-10T20:23:51;31.63;;;18.13;;
16727;SDS011;8482;54.396;18.590;2022-12-10T20:26:40;30.53;;;16.83;;
16727;SDS011;8482;54.396;18.590;2022-12-10T20:29:19;33.70;;;17.63;;
16727;SDS011;8482;54.396;18.590;2022-12-10T20:31:49;28.67;;;15.50;;
16727;SDS011;8482;54.396;18.590;2022-12-10T20:34:19;32.43;;;17.07;;
16727;SDS011;8482;54.396;18.590;2022-12-10T20:36:46;32.83;;;16.23;;
16727;SDS011;8482;54.396;18.590;2022-12-10T20:39:17;30.57;;;16.13;;
16727;SDS011;8482;54.396;18.590;2022-12-10T20:41:49;30.03;;;15.83;;
16727;SDS011;8482;54.396;18.590;2022-12-10T20:44:17;30.43;;;16.43;;
16727;SDS011;8482;54.396;18.590;2022-12-10T20:46:44;29.50;;;15.17;;
16727;SDS011;8482;54.396;18.590;2022-12-10T20:49:11;31.77;;;15.80;;
16727;SDS011;8482;54.396;18.590;2022-12-10T20:51:39;32.80;;;16.60;;
16727;SDS011;8482;54.396;18.590;2022-12-10T20:54:06;29.83;;;15.87;;
16727;SDS011;8482;54.396;18.590;2022-12-10T20:56:32;30.60;;;13.97;;
16727;SDS011;8482;54.396;18.590;2022-12-10T20:58:59;30.13;;;15.17;;
16727;SDS011;8482;54.396;18.590;2022-12-10T21:01:25;26.50;;;15.93;;
16727;SDS011;8482;54.396;18.590;2022-12-10T21:03:51;29.13;;;14.23;;
16727;SDS011;8482;54.396;18.590;2022-12-10T21:06:21;27.57;;;14.60;;
16727;SDS011;8482;54.396;18.590;2022-12-10T21:08:51;25.80;;;13.00;;
16727;SDS011;8482;54.396;18.590;2022-12-10T21:11:18;29.67;;;15.77;;
16727;SDS011;8482;54.396;18.590;2022-12-10T21:13:45;28.73;;;16.63;;
16727;SDS011;8482;54.396;18.590;2022-12-10T21:16:13;29.57;;;15.27;;
16727;SDS011;8482;54.396;18.590;2022-12-10T21:18:42;32.87;;;16.20;;
16727;SDS011;8482;54.396;18.590;2022-12-10T21:21:10;26.90;;;14.20;;
16727;SDS011;8482;54.396;18.590;2022-12-10T21:23:38;28.50;;;14.87;;
16727;SDS011;8482;54.396;18.590;2022-12-10T21:26:05;34.70;;;17.60;;
16727;SDS011;8482;54.396;18.590;2022-12-10T21:28:32;36.50;;;18.80;;
16727;SDS011;8482;54.396;18.590;2022-12-10T21:30:58;40.37;;;19.97;;
16727;SDS011;8482;54.396;18.590;2022-12-10T21:33:25;37.47;;;20.23;;
16727;SDS011;8482;54.396;18.590;2022-12-10T21:35:52;39.40;;;20.53;;
16727;SDS011;8482;54.396;18.590;2022-12-10T21:38:19;38.43;;;20.50;;
16727;SDS011;8482;54.396;18.590;2022-12-10T21:40:47;36.90;;;20.00;;
16727;SDS011;8482;54.396;18.590;2022-12-10T21:43:18;39.47;;;20.50;;
16727;SDS011;8482;54.396;18.590;2022-12-10T21:45:52;45.27;;;23.07;;
16727;SDS011;8482;54.396;18.590;2022-12-10T21:48:21;41.03;;;22.10;;
16727;SDS011;8482;54.396;18.590;2022-12-10T21:51:01;39.73;;;21.83;;
16727;SDS011;8482;54.396;18.590;2022-12-10T21:53:27;41.70;;;21.63;;
16727;SDS011;8482;54.396;18.590;2022-12-10T21:55:54;42.40;;;21.50;;
16727;SDS011;8482;54.396;18.590;2022-12-10T21:58:20;43.83;;;20.27;;
16727;SDS011;8482;54.396;18.590;2022-12-10T22:00:53;39.80;;;18.90;;
16727;SDS011;8482;54.396;18.590;2022-12-10T22:03:22;33.20;;;18.03;;
16727;SDS011;8482;54.396;18.590;2022-12-10T22:05:49;32.47;;;16.13;;
16727;SDS011;8482;54.396;18.590;2022-12-10T22:08:15;28.43;;;15.33;;
16727;SDS011;8482;54.396;18.590;2022-12-10T22:10:41;28.07;;;15.63;;
16727;SDS011;8482;54.396;18.590;2022-12-10T22:13:07;29.93;;;15.33;;
16727;SDS011;8482;54.396;18.590;2022-12-10T22:15:35;25.73;;;14.10;;
16727;SDS011;8482;54.396;18.590;2022-12-10T22:18:03;31.00;;;16.60;;
